Time,TemperatureF,DewpointF,PressureIn,WindDirection,WindDirectionDegrees,WindSpeedMPH,WindSpeedGustMPH,Humidity,HourlyPrecipIn,Conditions,Clouds,dailyrainin,SoftwareType,DateUTC
2013-03-05 00:03:00,44.8,38.7,29.96,North,0,0.0,0.0,79,0.00,,,0.00,WUHU216HW,2013-03-05 08:03:00,
2013-03-05 00:08:00,44.6,38.5,29.96,North,0,0.0,0.0,79,0.00,,,0.00,WUHU216HW,2013-03-05 08:08:00,
2013-03-05 00:13:00,44.6,38.5,29.96,North,0,0.0,0.0,79,0.00,,,0.00,WUHU216HW,2013-03-05 08:13:00,
2013-03-05 00:18:00,44.5,38.7,29.96,North,0,0.0,0.0,80,0.00,,,0.00,WUHU216HW,2013-03-05 08:18:00,
2013-03-05 00:23:00,44.5,38.7,29.95,North,0,0.0,0.0,80,0.00,,,0.00,WUHU216HW,2013-03-05 08:23:00,
2013-03-05 00:28:00,44.3,38.5,29.95,North,0,0.0,0.0,80,0.00,,,0.00,WUHU216HW,2013-03-05 08:28:00,
2013-03-05 00:33:00,44.3,38.5,29.95,North,0,0.0,0.0,80,0.00,,,0.00,WUHU216HW,2013-03-05 08:33:00,
2013-03-05 00:38:00,44.1,38.3,29.95,North,0,0.0,0.0,80,0.00,,,0.00,WUHU216HW,2013-03-05 08:38:00,
2013-03-05 00:43:00,44.1,38.3,29.95,North,0,0.0,0.0,80,0.00,,,0.00,WUHU216HW,2013-03-05 08:43:00,
2013-03-05 00:48:00,43.9,38.2,29.95,North,0,0.0,0.0,80,0.00,,,0.00,WUHU216HW,2013-03-05 08:48:00,
2013-03-05 00:53:00,43.9,38.2,29.95,North,0,0.0,0.0,80,0.00,,,0.00,WUHU216HW,2013-03-05 08:53:00,
2013-03-05 00:59:00,43.7,38.3,29.95,North,0,0.0,0.0,81,0.00,,,0.00,WUHU216HW,2013-03-05 08:59:00,
2013-03-05 01:04:00,43.6,38.1,29.95,North,0,0.0,0.0,81,0.00,,,0.00,WUHU216HW,2013-03-05 09:04:00,
2013-03-05 01:09:00,43.6,38.1,29.94,North,0,0.0,0.0,81,0.00,,,0.00,WUHU216HW,2013-03-05 09:09:00,
2013-03-05 01:14:00,43.6,38.1,29.94,North,0,0.0,0.0,81,0.00,,,0.00,WUHU216HW,2013-03-05 09:14:00,
2013-03-05 01:19:00,43.6,38.1,29.95,North,0,0.0,0.0,81,0.00,,,0.00,WUHU216HW,2013-03-05 09:19:00,
2013-03-05 01:24:00,43.2,37.7,29.95,North,0,0.0,0.0,81,0.00,,,0.00,WUHU216HW,2013-03-05 09:24:00,
2013-03-05 01:29:00,43.2,37.7,29.95,North,0,0.0,0.0,81,0.00,,,0.00,WUHU216HW,2013-03-05 09:29:00,
2013-03-05 01:34:00,43.0,37.5,29.95,North,0,0.0,0.0,81,0.00,,,0.00,WUHU216HW,2013-03-05 09:34:00,
2013-03-05 01:39:00,42.8,37.4,29.95,North,0,0.0,0.0,81,0.00,,,0.00,WUHU216HW,2013-03-05 09:39:00,
2013-03-05 01:44:00,42.8,37.4,29.95,North,0,0.0,0.0,81,0.00,,,0.00,WUHU216HW,2013-03-05 09:44:00,
2013-03-05 01:49:00,42.8,37.4,29.95,North,0,0.0,0.0,81,0.00,,,0.00,WUHU216HW,2013-03-05 09:49:00,
2013-03-05 01:55:00,42.8,37.4,29.95,North,0,0.0,0.0,81,0.00,,,0.00,WUHU216HW,2013-03-05 09:55:00,
2013-03-05 02:00:00,42.7,37.5,29.95,North,0,0.0,0.0,82,0.00,,,0.00,WUHU216HW,2013-03-05 10:00:00,
2013-03-05 02:05:00,42.7,37.5,29.95,North,0,0.0,0.0,82,0.00,,,0.00,WUHU216HW,2013-03-05 10:05:00,
2013-03-05 02:10:00,42.5,37.4,29.94,North,0,0.0,0.0,82,0.00,,,0.00,WUHU216HW,2013-03-05 10:10:00,
2013-03-05 02:15:00,42.5,37.4,29.95,North,0,0.0,0.0,82,0.00,,,0.00,WUHU216HW,2013-03-05 10:15:00,
2013-03-05 02:20:00,42.3,37.2,29.95,North,0,0.0,0.0,82,0.00,,,0.00,WUHU216HW,2013-03-05 10:20:00,
2013-03-05 02:25:00,42.3,37.2,29.95,North,0,0.0,0.0,82,0.00,,,0.00,WUHU216HW,2013-03-05 10:25:00,
2013-03-05 02:30:00,42.1,37.0,29.95,North,0,0.0,0.0,82,0.00,,,0.00,WUHU216HW,2013-03-05 10:30:00,
2013-03-05 02:35:00,42.1,37.0,29.94,North,0,0.0,0.0,82,0.00,,,0.00,WUHU216HW,2013-03-05 10:35:00,
2013-03-05 02:40:00,41.9,36.8,29.95,North,0,0.0,0.0,82,0.00,,,0.00,WUHU216HW,2013-03-05 10:40:00,
2013-03-05 02:45:00,41.9,36.8,29.95,North,0,0.0,0.0,82,0.00,,,0.00,WUHU216HW,2013-03-05 10:45:00,
2013-03-05 02:50:00,41.8,36.6,29.95,North,0,0.0,0.0,82,0.00,,,0.00,WUHU216HW,2013-03-05 10:50:00,
2013-03-05 02:56:00,41.8,36.9,29.95,North,0,0.0,0.0,83,0.00,,,0.00,WUHU216HW,2013-03-05 10:56:00,
2013-03-05 03:01:00,41.8,36.9,29.94,North,0,0.0,0.0,83,0.00,,,0.00,WUHU216HW,2013-03-05 11:01:00,
2013-03-05 03:06:00,41.8,36.6,29.94,North,0,0.0,0.0,82,0.00,,,0.00,WUHU216HW,2013-03-05 11:06:00,
2013-03-05 03:11:00,41.6,36.5,29.95,North,0,0.0,0.0,82,0.00,,,0.00,WUHU216HW,2013-03-05 11:11:00,
2013-03-05 03:16:00,41.6,36.5,29.94,North,0,0.0,0.0,82,0.00,,,0.00,WUHU216HW,2013-03-05 11:16:00,
2013-03-05 03:21:00,41.6,36.5,29.95,North,0,0.0,0.0,82,0.00,,,0.00,WUHU216HW,2013-03-05 11:21:00,
2013-03-05 03:26:00,41.6,36.7,29.95,North,0,0.0,0.0,83,0.00,,,0.00,WUHU216HW,2013-03-05 11:26:00,
2013-03-05 03:31:00,41.6,36.7,29.95,North,0,0.0,0.0,83,0.00,,,0.00,WUHU216HW,2013-03-05 11:31:00,
2013-03-05 03:36:00,41.6,36.7,29.95,North,0,0.0,0.0,83,0.00,,,0.00,WUHU216HW,2013-03-05 11:36:00,
2013-03-05 03:41:00,41.8,37.3,29.95,North,0,0.0,0.0,84,0.00,,,0.00,WUHU216HW,2013-03-05 11:41:00,
2013-03-05 03:46:00,41.8,37.3,29.95,North,0,0.0,0.0,84,0.00,,,0.00,WUHU216HW,2013-03-05 11:46:00,
2013-03-05 03:51:00,41.9,37.7,29.95,North,0,0.0,0.0,85,0.00,,,0.00,WUHU216HW,2013-03-05 11:51:00,
2013-03-05 03:56:00,42.1,37.9,29.95,North,0,0.0,0.0,85,0.00,,,0.00,WUHU216HW,2013-03-05 11:56:00,
2013-03-05 04:02:00,42.1,37.9,29.95,North,0,0.0,0.0,85,0.00,,,0.00,WUHU216HW,2013-03-05 12:02:00,
2013-03-05 04:07:00,42.3,38.1,29.95,North,0,0.0,0.0,85,0.00,,,0.00,WUHU216HW,2013-03-05 12:07:00,
2013-03-05 04:12:00,42.5,38.3,29.95,North,0,0.0,0.0,85,0.00,,,0.00,WUHU216HW,2013-03-05 12:12:00,
2013-03-05 04:17:00,42.5,38.3,29.95,North,0,0.0,0.0,85,0.00,,,0.00,WUHU216HW,2013-03-05 12:17:00,
2013-03-05 04:22:00,42.7,38.4,29.95,North,0,0.0,0.0,85,0.00,,,0.00,WUHU216HW,2013-03-05 12:22:00,
2013-03-05 04:27:00,42.8,38.6,29.95,North,0,0.0,0.0,85,0.00,,,0.00,WUHU216HW,2013-03-05 12:27:00,
2013-03-05 04:32:00,42.8,38.6,29.95,North,0,0.0,0.0,85,0.00,,,0.00,WUHU216HW,2013-03-05 12:32:00,
2013-03-05 04:37:00,42.8,38.6,29.95,North,0,0.0,0.0,85,0.00,,,0.00,WUHU216HW,2013-03-05 12:37:00,
2013-03-05 04:42:00,43.0,38.8,29.95,North,0,0.0,0.0,85,0.00,,,0.00,WUHU216HW,2013-03-05 12:42:00,
2013-03-05 04:47:00,43.0,38.8,29.95,North,0,0.0,0.0,85,0.00,,,0.00,WUHU216HW,2013-03-05 12:47:00,
2013-03-05 04:52:00,43.0,38.8,29.95,North,0,0.0,0.0,85,0.00,,,0.00,WUHU216HW,2013-03-05 12:52:00,
2013-03-05 04:57:00,43.0,38.8,29.95,North,0,0.0,0.0,85,0.00,,,0.00,WUHU216HW,2013-03-05 12:57:00,
2013-03-05 05:02:00,42.8,38.6,29.95,North,0,0.0,0.0,85,0.00,,,0.00,WUHU216HW,2013-03-05 13:02:00,
2013-03-05 05:08:00,42.8,38.6,29.96,North,0,0.0,0.0,85,0.00,,,0.00,WUHU216HW,2013-03-05 13:08:00,
2013-03-05 05:13:00,42.8,38.6,29.95,North,0,0.0,0.0,85,0.00,,,0.00,WUHU216HW,2013-03-05 13:13:00,
2013-03-05 05:18:00,42.8,38.6,29.95,North,0,0.0,0.0,85,0.00,,,0.00,WUHU216HW,2013-03-05 13:18:00,
2013-03-05 05:23:00,42.8,38.9,29.95,North,0,0.0,0.0,86,0.00,,,0.00,WUHU216HW,2013-03-05 13:23:00,
2013-03-05 05:28:00,42.8,38.6,29.94,North,0,0.0,0.0,85,0.00,,,0.00,WUHU216HW,2013-03-05 13:28:00,
2013-03-05 05:33:00,42.8,38.9,29.94,North,0,0.0,0.0,86,0.00,,,0.00,WUHU216HW,2013-03-05 13:33:00,
2013-03-05 05:38:00,43.0,39.1,29.95,North,0,0.0,0.0,86,0.00,,,0.00,WUHU216HW,2013-03-05 13:38:00,
2013-03-05 05:43:00,43.0,39.1,29.95,North,0,0.0,0.0,86,0.00,,,0.00,WUHU216HW,2013-03-05 13:43:00,
2013-03-05 05:48:00,43.0,39.1,29.95,North,0,0.0,0.0,86,0.00,,,0.00,WUHU216HW,2013-03-05 13:48:00,
2013-03-05 05:53:00,43.2,39.2,29.95,North,0,0.0,0.0,86,0.00,,,0.00,WUHU216HW,2013-03-05 13:53:00,
2013-03-05 05:58:00,43.2,39.2,29.94,North,0,0.0,0.0,86,0.00,,,0.00,WUHU216HW,2013-03-05 13:58:00,
2013-03-05 06:03:00,43.4,39.4,29.94,North,0,0.0,0.0,86,0.00,,,0.00,WUHU216HW,2013-03-05 14:03:00,
2013-03-05 06:08:00,43.6,39.6,29.94,North,0,0.0,0.0,86,0.00,,,0.00,WUHU216HW,2013-03-05 14:08:00,
2013-03-05 06:13:00,43.6,39.6,29.94,North,0,0.0,0.0,86,0.00,,,0.00,WUHU216HW,2013-03-05 14:13:00,
2013-03-05 06:19:00,43.6,39.6,29.94,North,0,0.0,0.0,86,0.00,,,0.00,WUHU216HW,2013-03-05 14:19:00,
2013-03-05 06:24:00,43.6,39.6,29.94,North,0,0.0,0.0,86,0.00,,,0.00,WUHU216HW,2013-03-05 14:24:00,
2013-03-05 06:29:00,43.6,39.6,29.94,North,0,0.0,0.0,86,0.00,,,0.00,WUHU216HW,2013-03-05 14:29:00,
2013-03-05 06:34:00,43.6,39.6,29.94,North,0,0.0,0.0,86,0.00,,,0.00,WUHU216HW,2013-03-05 14:34:00,
2013-03-05 06:39:00,43.6,39.6,29.94,North,0,0.0,0.0,86,0.00,,,0.00,WUHU216HW,2013-03-05 14:39:00,
2013-03-05 06:44:00,43.6,39.6,29.94,North,0,0.0,0.0,86,0.00,,,0.00,WUHU216HW,2013-03-05 14:44:00,
2013-03-05 06:49:00,43.4,39.4,29.95,North,0,0.0,0.0,86,0.00,,,0.00,WUHU216HW,2013-03-05 14:49:00,
2013-03-05 06:54:00,43.2,39.2,29.95,North,0,0.0,0.0,86,0.00,,,0.00,WUHU216HW,2013-03-05 14:54:00,
2013-03-05 06:59:00,43.2,39.2,29.95,North,0,0.0,0.0,86,0.00,,,0.00,WUHU216HW,2013-03-05 14:59:00,
2013-03-05 07:04:00,43.2,39.0,29.95,North,0,0.0,0.0,85,0.00,,,0.00,WUHU216HW,2013-03-05 15:04:00,
2013-03-05 07:09:00,43.2,39.2,29.95,North,0,0.0,0.0,86,0.00,,,0.00,WUHU216HW,2013-03-05 15:09:00,
2013-03-05 07:14:00,43.2,39.2,29.95,North,0,0.0,0.0,86,0.00,,,0.00,WUHU216HW,2013-03-05 15:14:00,
2013-03-05 07:19:00,43.0,39.1,29.95,North,0,0.0,0.0,86,0.00,,,0.00,WUHU216HW,2013-03-05 15:19:00,
2013-03-05 07:24:00,43.2,39.0,29.95,North,0,0.0,0.0,85,0.00,,,0.00,WUHU216HW,2013-03-05 15:24:00,
2013-03-05 07:30:00,43.2,39.2,29.95,North,0,0.0,0.0,86,0.00,,,0.00,WUHU216HW,2013-03-05 15:30:00,
2013-03-05 07:35:00,43.4,39.4,29.95,North,0,0.0,0.0,86,0.00,,,0.00,WUHU216HW,2013-03-05 15:35:00,
2013-03-05 07:40:00,43.6,39.6,29.95,North,0,0.0,0.0,86,0.00,,,0.00,WUHU216HW,2013-03-05 15:40:00,
2013-03-05 07:45:00,43.7,39.8,29.95,North,0,0.0,0.0,86,0.00,,,0.00,WUHU216HW,2013-03-05 15:45:00,
2013-03-05 07:50:00,44.1,40.1,29.95,North,0,0.0,0.0,86,0.00,,,0.00,WUHU216HW,2013-03-05 15:50:00,
2013-03-05 07:55:00,44.3,40.3,29.94,North,0,0.0,0.0,86,0.00,,,0.00,WUHU216HW,2013-03-05 15:55:00,
2013-03-05 08:00:00,44.6,40.4,29.94,North,0,0.0,0.0,85,0.00,,,0.00,WUHU216HW,2013-03-05 16:00:00,
2013-03-05 08:05:00,45.2,41.0,29.94,North,0,0.0,0.0,85,0.00,,,0.00,WUHU216HW,2013-03-05 16:05:00,
2013-03-05 08:10:00,45.7,41.5,29.94,North,0,0.0,0.0,85,0.00,,,0.00,WUHU216HW,2013-03-05 16:10:00,
2013-03-05 08:15:00,46.3,41.8,29.94,North,0,0.0,0.0,84,0.00,,,0.00,WUHU216HW,2013-03-05 16:15:00,
2013-03-05 08:20:00,46.4,41.6,29.94,North,0,0.0,0.0,83,0.00,,,0.00,WUHU216HW,2013-03-05 16:20:00,
2013-03-05 08:25:00,46.8,42.0,29.93,North,0,0.0,0.0,83,0.00,,,0.00,WUHU216HW,2013-03-05 16:25:00,
2013-03-05 08:30:00,47.0,41.8,29.93,North,0,0.0,0.0,82,0.00,,,0.00,WUHU216HW,2013-03-05 16:30:00,
2013-03-05 08:36:00,47.2,41.9,29.93,North,0,0.0,0.0,82,0.00,,,0.00,WUHU216HW,2013-03-05 16:36:00,
2013-03-05 08:41:00,47.5,42.3,29.93,North,0,0.0,0.0,82,0.00,,,0.00,WUHU216HW,2013-03-05 16:41:00,
2013-03-05 08:46:00,47.9,42.3,29.93,North,0,0.0,0.0,81,0.00,,,0.00,WUHU216HW,2013-03-05 16:46:00,
2013-03-05 08:51:00,48.2,42.3,29.93,North,0,0.0,0.0,80,0.00,,,0.00,WUHU216HW,2013-03-05 16:51:00,
2013-03-05 08:56:00,48.4,42.5,29.93,North,0,0.0,0.0,80,0.00,,,0.00,WUHU216HW,2013-03-05 16:56:00,
2013-03-05 09:01:00,48.8,42.1,29.93,North,0,0.0,0.0,78,0.00,,,0.00,WUHU216HW,2013-03-05 17:01:00,
2013-03-05 09:06:00,49.1,42.5,29.92,North,0,0.0,0.0,78,0.00,,,0.00,WUHU216HW,2013-03-05 17:06:00,
2013-03-05 09:11:00,49.3,42.4,29.93,North,0,0.0,0.0,77,0.00,,,0.00,WUHU216HW,2013-03-05 17:11:00,
2013-03-05 09:16:00,49.5,42.6,29.92,North,0,0.0,0.0,77,0.00,,,0.00,WUHU216HW,2013-03-05 17:16:00,
2013-03-05 09:21:00,50.0,42.8,29.92,North,0,0.0,0.0,76,0.00,,,0.00,WUHU216HW,2013-03-05 17:21:00,
2013-03-05 09:26:00,50.2,42.6,29.92,North,0,0.0,0.0,75,0.00,,,0.00,WUHU216HW,2013-03-05 17:26:00,
2013-03-05 09:31:00,50.4,42.0,29.92,North,0,0.0,0.0,73,0.00,,,0.00,WUHU216HW,2013-03-05 17:31:00,
2013-03-05 09:36:00,50.8,42.1,29.91,North,0,0.0,0.0,72,0.00,,,0.00,WUHU216HW,2013-03-05 17:36:00,
2013-03-05 09:41:00,51.1,42.1,29.91,North,0,0.0,0.0,71,0.00,,,0.00,WUHU216HW,2013-03-05 17:41:00,
2013-03-05 09:47:00,51.5,42.5,29.91,North,0,0.0,0.0,71,0.00,,,0.00,WUHU216HW,2013-03-05 17:47:00,
2013-03-05 09:52:00,52.0,43.0,29.91,North,0,0.0,0.0,71,0.00,,,0.00,WUHU216HW,2013-03-05 17:52:00,
2013-03-05 09:57:00,52.6,42.8,29.91,North,0,0.0,0.0,69,0.00,,,0.00,WUHU216HW,2013-03-05 17:57:00,
2013-03-05 10:02:00,52.9,42.2,29.91,North,0,0.0,0.0,67,0.00,,,0.00,WUHU216HW,2013-03-05 18:02:00,
2013-03-05 10:07:00,53.3,43.0,29.91,North,0,0.0,0.0,68,0.00,,,0.00,WUHU216HW,2013-03-05 18:07:00,
2013-03-05 10:12:00,53.5,42.8,29.91,North,0,0.0,0.0,67,0.00,,,0.00,WUHU216HW,2013-03-05 18:12:00,
2013-03-05 10:17:00,54.2,42.2,29.90,North,0,0.0,0.0,64,0.00,,,0.00,WUHU216HW,2013-03-05 18:17:00,
2013-03-05 10:22:00,54.7,42.8,29.90,North,0,0.0,0.0,64,0.00,,,0.00,WUHU216HW,2013-03-05 18:22:00,
2013-03-05 10:27:00,55.1,42.3,29.90,North,0,0.0,0.0,62,0.00,,,0.00,WUHU216HW,2013-03-05 18:27:00,
2013-03-05 10:32:00,55.4,41.8,29.91,North,0,0.0,0.0,60,0.00,,,0.00,WUHU216HW,2013-03-05 18:32:00,
2013-03-05 10:38:00,55.8,42.1,29.91,North,0,0.0,0.0,60,0.00,,,0.00,WUHU216HW,2013-03-05 18:38:00,
2013-03-05 10:43:00,56.2,42.5,29.90,North,0,0.0,0.0,60,0.00,,,0.00,WUHU216HW,2013-03-05 18:43:00,
2013-03-05 10:48:00,56.5,42.8,29.90,North,0,0.0,0.0,60,0.00,,,0.00,WUHU216HW,2013-03-05 18:48:00,
2013-03-05 10:53:00,57.4,42.3,29.90,North,0,0.0,0.0,57,0.00,,,0.00,WUHU216HW,2013-03-05 18:53:00,
2013-03-05 10:58:00,57.8,42.2,29.90,North,0,0.0,0.0,56,0.00,,,0.00,WUHU216HW,2013-03-05 18:58:00,
2013-03-05 11:03:00,58.0,41.9,29.90,North,0,0.0,0.0,55,0.00,,,0.00,WUHU216HW,2013-03-05 19:03:00,
2013-03-05 11:08:00,58.1,42.0,29.90,North,0,0.0,0.0,55,0.00,,,0.00,WUHU216HW,2013-03-05 19:08:00,
2013-03-05 11:13:00,58.3,42.2,29.90,North,0,0.0,0.0,55,0.00,,,0.00,WUHU216HW,2013-03-05 19:13:00,
2013-03-05 11:18:00,58.9,42.2,29.90,North,0,0.0,0.0,54,0.00,,,0.00,WUHU216HW,2013-03-05 19:18:00,
2013-03-05 11:23:00,59.6,42.8,29.90,North,0,0.0,0.0,54,0.00,,,0.00,WUHU216HW,2013-03-05 19:23:00,
2013-03-05 11:28:00,59.9,42.3,29.90,North,0,0.0,0.0,52,0.00,,,0.00,WUHU216HW,2013-03-05 19:28:00,
2013-03-05 11:33:00,59.9,42.8,29.90,North,0,0.0,0.0,53,0.00,,,0.00,WUHU216HW,2013-03-05 19:33:00,
2013-03-05 11:39:00,60.3,42.6,29.90,North,0,0.0,0.0,52,0.00,,,0.00,WUHU216HW,2013-03-05 19:39:00,
2013-03-05 11:44:00,60.7,42.9,29.90,North,0,0.0,0.0,52,0.00,,,0.00,WUHU216HW,2013-03-05 19:44:00,
2013-03-05 11:49:00,60.8,42.6,29.89,North,0,0.0,0.0,51,0.00,,,0.00,WUHU216HW,2013-03-05 19:49:00,
2013-03-05 11:54:00,61.2,41.9,29.89,North,0,0.0,0.0,49,0.00,,,0.00,WUHU216HW,2013-03-05 19:54:00,
2013-03-05 11:59:00,61.6,42.2,29.89,North,0,0.0,0.0,49,0.00,,,0.00,WUHU216HW,2013-03-05 19:59:00,
2013-03-05 12:04:00,61.6,42.2,29.88,North,0,0.0,0.0,49,0.00,,,0.00,WUHU216HW,2013-03-05 20:04:00,
2013-03-05 12:09:00,61.9,42.5,29.88,North,0,0.0,0.0,49,0.00,,,0.00,WUHU216HW,2013-03-05 20:09:00,
2013-03-05 12:14:00,62.3,42.3,29.88,North,0,0.0,0.0,48,0.00,,,0.00,WUHU216HW,2013-03-05 20:14:00,
2013-03-05 12:19:00,62.3,42.8,29.88,North,0,0.0,0.0,49,0.00,,,0.00,WUHU216HW,2013-03-05 20:19:00,
2013-03-05 12:24:00,62.5,43.6,29.88,North,0,0.0,0.0,50,0.00,,,0.00,WUHU216HW,2013-03-05 20:24:00,
2013-03-05 12:29:00,63.0,43.5,29.88,North,0,0.0,0.0,49,0.00,,,0.00,WUHU216HW,2013-03-05 20:29:00,
2013-03-05 12:35:00,63.4,43.8,29.87,North,0,0.0,0.0,49,0.00,,,0.00,WUHU216HW,2013-03-05 20:35:00,
2013-03-05 12:40:00,63.4,43.8,29.87,North,0,0.0,0.0,49,0.00,,,0.00,WUHU216HW,2013-03-05 20:40:00,
2013-03-05 12:45:00,63.5,44.0,29.87,North,0,0.0,0.0,49,0.00,,,0.00,WUHU216HW,2013-03-05 20:45:00,
2013-03-05 12:50:00,63.9,44.3,29.87,North,0,0.0,0.0,49,0.00,,,0.00,WUHU216HW,2013-03-05 20:50:00,
2013-03-05 12:55:00,63.9,43.8,29.86,North,0,0.0,0.0,48,0.00,,,0.00,WUHU216HW,2013-03-05 20:55:00,
2013-03-05 13:00:00,64.1,43.9,29.86,North,0,0.0,0.0,48,0.00,,,0.00,WUHU216HW,2013-03-05 21:00:00,
2013-03-05 13:05:00,64.1,43.3,29.86,North,0,0.0,0.0,47,0.00,,,0.00,WUHU216HW,2013-03-05 21:05:00,
2013-03-05 13:10:00,64.1,43.9,29.86,North,0,0.0,0.0,48,0.00,,,0.00,WUHU216HW,2013-03-05 21:10:00,
2013-03-05 13:15:00,64.3,44.0,29.85,North,0,0.0,0.0,48,0.00,,,0.00,WUHU216HW,2013-03-05 21:15:00,
2013-03-05 13:20:00,64.6,43.8,29.85,North,0,0.0,0.0,47,0.00,,,0.00,WUHU216HW,2013-03-05 21:20:00,
2013-03-05 13:25:00,64.4,43.7,29.86,North,0,0.0,0.0,47,0.00,,,0.00,WUHU216HW,2013-03-05 21:25:00,
2013-03-05 13:30:00,64.1,43.9,29.85,North,0,0.0,0.0,48,0.00,,,0.00,WUHU216HW,2013-03-05 21:30:00,
2013-03-05 13:36:00,64.1,43.3,29.85,North,0,0.0,0.0,47,0.00,,,0.00,WUHU216HW,2013-03-05 21:36:00,
2013-03-05 13:41:00,63.9,43.8,29.85,North,0,0.0,0.0,48,0.00,,,0.00,WUHU216HW,2013-03-05 21:41:00,
2013-03-05 13:46:00,63.4,43.2,29.85,North,0,0.0,0.0,48,0.00,,,0.00,WUHU216HW,2013-03-05 21:46:00,
2013-03-05 13:51:00,62.8,43.3,29.84,North,0,0.0,0.0,49,0.00,,,0.00,WUHU216HW,2013-03-05 21:51:00,
2013-03-05 13:56:00,62.5,43.6,29.85,North,0,0.0,0.0,50,0.00,,,0.00,WUHU216HW,2013-03-05 21:56:00,
2013-03-05 14:01:00,62.3,43.9,29.84,North,0,0.0,0.0,51,0.00,,,0.00,WUHU216HW,2013-03-05 22:01:00,
2013-03-05 14:06:00,62.3,43.9,29.84,North,0,0.0,0.0,51,0.00,,,0.00,WUHU216HW,2013-03-05 22:06:00,
2013-03-05 14:11:00,62.3,43.9,29.84,North,0,0.0,0.0,51,0.00,,,0.00,WUHU216HW,2013-03-05 22:11:00,
2013-03-05 14:16:00,62.6,44.2,29.84,North,0,0.0,0.0,51,0.00,,,0.00,WUHU216HW,2013-03-05 22:16:00,
2013-03-05 14:21:00,63.0,44.6,29.84,North,0,0.0,0.0,51,0.00,,,0.00,WUHU216HW,2013-03-05 22:21:00,
2013-03-05 14:27:00,63.0,44.1,29.84,North,0,0.0,0.0,50,0.00,,,0.00,WUHU216HW,2013-03-05 22:27:00,
2013-03-05 14:32:00,63.2,44.7,29.83,North,0,0.0,0.0,51,0.00,,,0.00,WUHU216HW,2013-03-05 22:32:00,
2013-03-05 14:37:00,63.2,44.2,29.83,North,0,0.0,0.0,50,0.00,,,0.00,WUHU216HW,2013-03-05 22:37:00,
2013-03-05 14:42:00,63.0,44.6,29.83,North,0,0.0,0.0,51,0.00,,,0.00,WUHU216HW,2013-03-05 22:42:00,
2013-03-05 14:47:00,63.0,44.6,29.83,North,0,0.0,0.0,51,0.00,,,0.00,WUHU216HW,2013-03-05 22:47:00,
2013-03-05 14:52:00,63.0,44.6,29.83,North,0,0.0,0.0,51,0.00,,,0.00,WUHU216HW,2013-03-05 22:52:00,
2013-03-05 14:57:00,62.6,44.2,29.83,North,0,0.0,0.0,51,0.00,,,0.00,WUHU216HW,2013-03-05 22:57:00,
2013-03-05 15:02:00,62.5,44.1,29.83,North,0,0.0,0.0,51,0.00,,,0.00,WUHU216HW,2013-03-05 23:02:00,
2013-03-05 15:07:00,62.3,43.9,29.83,North,0,0.0,0.0,51,0.00,,,0.00,WUHU216HW,2013-03-05 23:07:00,
2013-03-05 15:12:00,62.3,43.9,29.83,North,0,0.0,0.0,51,0.00,,,0.00,WUHU216HW,2013-03-05 23:12:00,
2013-03-05 15:17:00,62.3,43.4,29.83,North,0,0.0,0.0,50,0.00,,,0.00,WUHU216HW,2013-03-05 23:17:00,
2013-03-05 15:22:00,62.3,43.4,29.83,North,0,0.0,0.0,50,0.00,,,0.00,WUHU216HW,2013-03-05 23:22:00,
2013-03-05 15:27:00,62.3,43.4,29.83,North,0,0.0,0.0,50,0.00,,,0.00,WUHU216HW,2013-03-05 23:27:00,
2013-03-05 15:32:00,62.1,43.3,29.83,North,0,0.0,0.0,50,0.00,,,0.00,WUHU216HW,2013-03-05 23:32:00,
2013-03-05 15:37:00,61.9,43.1,29.83,North,0,0.0,0.0,50,0.00,,,0.00,WUHU216HW,2013-03-05 23:37:00,
2013-03-05 15:42:00,61.9,43.1,29.83,North,0,0.0,0.0,50,0.00,,,0.00,WUHU216HW,2013-03-05 23:42:00,
2013-03-05 15:47:00,61.7,42.9,29.83,North,0,0.0,0.0,50,0.00,,,0.00,WUHU216HW,2013-03-05 23:47:00,
2013-03-05 15:53:00,61.7,42.9,29.83,North,0,0.0,0.0,50,0.00,,,0.00,WUHU216HW,2013-03-05 23:53:00,
2013-03-05 15:58:00,61.6,42.8,29.83,North,0,0.0,0.0,50,0.00,,,0.00,WUHU216HW,2013-03-05 23:58:00,
2013-03-05 16:03:00,61.4,42.6,29.82,North,0,0.0,0.0,50,0.00,,,0.00,WUHU216HW,2013-03-06 00:03:00,
2013-03-05 16:08:00,61.2,42.5,29.82,North,0,0.0,0.0,50,0.00,,,0.00,WUHU216HW,2013-03-06 00:08:00,
2013-03-05 16:13:00,60.8,42.1,29.82,North,0,0.0,0.0,50,0.00,,,0.00,WUHU216HW,2013-03-06 00:13:00,
2013-03-05 16:18:00,60.8,42.1,29.82,North,0,0.0,0.0,50,0.00,,,0.00,WUHU216HW,2013-03-06 00:18:00,
2013-03-05 16:23:00,60.5,41.8,29.82,North,0,0.0,0.0,50,0.00,,,0.00,WUHU216HW,2013-03-06 00:23:00,
2013-03-05 16:28:00,60.3,42.1,29.82,North,0,0.0,0.0,51,0.00,,,0.00,WUHU216HW,2013-03-06 00:28:00,
2013-03-05 16:33:00,59.9,41.8,29.81,North,0,0.0,0.0,51,0.00,,,0.00,WUHU216HW,2013-03-06 00:33:00,
2013-03-05 16:38:00,59.6,42.0,29.80,North,0,0.0,0.0,52,0.00,,,0.00,WUHU216HW,2013-03-06 00:38:00,
2013-03-05 16:43:00,59.4,41.8,29.81,North,0,0.0,0.0,52,0.00,,,0.00,WUHU216HW,2013-03-06 00:43:00,
2013-03-05 16:48:00,59.0,41.4,29.80,North,0,0.0,0.0,52,0.00,,,0.00,WUHU216HW,2013-03-06 00:48:00,
2013-03-05 16:53:00,58.7,41.6,29.80,North,0,0.0,0.0,53,0.00,,,0.00,WUHU216HW,2013-03-06 00:53:00,
2013-03-05 16:59:00,58.1,40.6,29.80,North,0,0.0,0.0,52,0.00,,,0.00,WUHU216HW,2013-03-06 00:59:00,
2013-03-05 17:04:00,58.0,40.5,29.80,North,0,0.0,0.0,52,0.00,,,0.00,WUHU216HW,2013-03-06 01:04:00,
2013-03-05 17:09:00,57.8,40.3,29.80,North,0,0.0,0.0,52,0.00,,,0.00,WUHU216HW,2013-03-06 01:09:00,
2013-03-05 17:14:00,57.4,40.0,29.80,North,0,0.0,0.0,52,0.00,,,0.00,WUHU216HW,2013-03-06 01:14:00,
2013-03-05 17:19:00,56.9,40.0,29.80,North,0,0.0,0.0,53,0.00,,,0.00,WUHU216HW,2013-03-06 01:19:00,
2013-03-05 17:24:00,56.7,39.8,29.80,North,0,0.0,0.0,53,0.00,,,0.00,WUHU216HW,2013-03-06 01:24:00,
2013-03-05 17:29:00,56.5,39.6,29.79,North,0,0.0,0.0,53,0.00,,,0.00,WUHU216HW,2013-03-06 01:29:00,
2013-03-05 17:34:00,56.5,40.1,29.79,North,0,0.0,0.0,54,0.00,,,0.00,WUHU216HW,2013-03-06 01:34:00,
2013-03-05 17:39:00,56.2,39.7,29.79,North,0,0.0,0.0,54,0.00,,,0.00,WUHU216HW,2013-03-06 01:39:00,
2013-03-05 17:44:00,55.8,39.3,29.79,North,0,0.0,0.0,54,0.00,,,0.00,WUHU216HW,2013-03-06 01:44:00,
2013-03-05 17:49:00,55.4,39.4,29.78,North,0,0.0,0.0,55,0.00,,,0.00,WUHU216HW,2013-03-06 01:49:00,
2013-03-05 17:55:00,55.3,39.7,29.78,North,0,0.0,0.0,56,0.00,,,0.00,WUHU216HW,2013-03-06 01:55:00,
2013-03-05 18:00:00,55.1,39.6,29.78,North,0,0.0,0.0,56,0.00,,,0.00,WUHU216HW,2013-03-06 02:00:00,
2013-03-05 18:05:00,54.7,39.7,29.78,North,0,0.0,0.0,57,0.00,,,0.00,WUHU216HW,2013-03-06 02:05:00,
2013-03-05 18:10:00,54.4,39.4,29.78,North,0,0.0,0.0,57,0.00,,,0.00,WUHU216HW,2013-03-06 02:10:00,
2013-03-05 18:15:00,54.2,39.7,29.78,North,0,0.0,0.0,58,0.00,,,0.00,WUHU216HW,2013-03-06 02:15:00,
2013-03-05 18:20:00,54.0,40.0,29.77,North,0,0.0,0.0,59,0.00,,,0.00,WUHU216HW,2013-03-06 02:20:00,
2013-03-05 18:25:00,53.6,40.1,29.77,North,0,0.0,0.0,60,0.00,,,0.00,WUHU216HW,2013-03-06 02:25:00,
2013-03-05 18:30:00,53.6,40.1,29.77,North,0,0.0,0.0,60,0.00,,,0.00,WUHU216HW,2013-03-06 02:30:00,
2013-03-05 18:35:00,53.3,40.1,29.77,North,0,0.0,0.0,61,0.00,,,0.00,WUHU216HW,2013-03-06 02:35:00,
2013-03-05 18:40:00,53.1,40.4,29.77,North,0,0.0,0.0,62,0.00,,,0.00,WUHU216HW,2013-03-06 02:40:00,
2013-03-05 18:45:00,52.9,40.6,29.77,North,0,0.0,0.0,63,0.00,,,0.00,WUHU216HW,2013-03-06 02:45:00,
2013-03-05 18:50:00,52.9,40.6,29.77,North,0,0.0,0.0,63,0.00,,,0.00,WUHU216HW,2013-03-06 02:50:00,
2013-03-05 18:55:00,52.7,40.4,29.78,North,0,0.0,0.0,63,0.00,,,0.00,WUHU216HW,2013-03-06 02:55:00,
2013-03-05 19:00:00,52.7,40.4,29.78,North,0,0.0,0.0,63,0.00,,,0.00,WUHU216HW,2013-03-06 03:00:00,
2013-03-05 19:05:00,52.6,40.3,29.78,North,0,0.0,0.0,63,0.00,,,0.00,WUHU216HW,2013-03-06 03:05:00,
2013-03-05 19:11:00,52.6,40.3,29.78,North,0,0.0,0.0,63,0.00,,,0.00,WUHU216HW,2013-03-06 03:11:00,
2013-03-05 19:16:00,52.4,40.2,29.78,North,0,0.0,0.0,63,0.00,,,0.00,WUHU216HW,2013-03-06 03:16:00,
2013-03-05 19:21:00,52.4,40.5,29.77,North,0,0.0,0.0,64,0.00,,,0.00,WUHU216HW,2013-03-06 03:21:00,
2013-03-05 19:26:00,52.2,40.0,29.77,North,0,0.0,0.0,63,0.00,,,0.00,WUHU216HW,2013-03-06 03:26:00,
2013-03-05 19:31:00,52.2,40.3,29.77,North,0,0.0,0.0,64,0.00,,,0.00,WUHU216HW,2013-03-06 03:31:00,
2013-03-05 19:36:00,52.2,40.3,29.77,North,0,0.0,0.0,64,0.00,,,0.00,WUHU216HW,2013-03-06 03:36:00,
2013-03-05 19:41:00,52.2,40.3,29.77,North,0,0.0,0.0,64,0.00,,,0.00,WUHU216HW,2013-03-06 03:41:00,
2013-03-05 19:46:00,52.0,40.1,29.77,North,0,0.0,0.0,64,0.00,,,0.00,WUHU216HW,2013-03-06 03:46:00,
2013-03-05 19:51:00,51.8,40.0,29.77,North,0,0.0,0.0,64,0.00,,,0.00,WUHU216HW,2013-03-06 03:51:00,
2013-03-05 19:56:00,51.8,40.4,29.77,North,0,0.0,0.0,65,0.00,,,0.00,WUHU216HW,2013-03-06 03:56:00,
2013-03-05 20:01:00,51.8,40.4,29.78,North,0,0.0,0.0,65,0.00,,,0.00,WUHU216HW,2013-03-06 04:01:00,
2013-03-05 20:06:00,51.7,40.2,29.78,North,0,0.0,0.0,65,0.00,,,0.00,WUHU216HW,2013-03-06 04:06:00,
2013-03-05 20:12:00,51.7,40.2,29.78,North,0,0.0,0.0,65,0.00,,,0.00,WUHU216HW,2013-03-06 04:12:00,
2013-03-05 20:17:00,51.7,40.7,29.78,North,0,0.0,0.0,66,0.00,,,0.00,WUHU216HW,2013-03-06 04:17:00,
2013-03-05 20:22:00,51.7,41.0,29.77,North,0,0.0,0.0,67,0.00,,,0.00,WUHU216HW,2013-03-06 04:22:00,
2013-03-05 20:27:00,51.7,41.0,29.77,North,0,0.0,0.0,67,0.00,,,0.00,WUHU216HW,2013-03-06 04:27:00,
2013-03-05 20:32:00,51.5,40.9,29.77,North,0,0.0,0.0,67,0.00,,,0.00,WUHU216HW,2013-03-06 04:32:00,
2013-03-05 20:37:00,51.5,41.3,29.77,North,0,0.0,0.0,68,0.00,,,0.00,WUHU216HW,2013-03-06 04:37:00,
2013-03-05 20:42:00,51.5,41.3,29.77,North,0,0.0,0.0,68,0.00,,,0.00,WUHU216HW,2013-03-06 04:42:00,
2013-03-05 20:47:00,51.5,41.3,29.77,North,0,0.0,0.0,68,0.00,,,0.00,WUHU216HW,2013-03-06 04:47:00,
2013-03-05 20:52:00,51.5,41.3,29.78,North,0,0.0,0.0,68,0.00,,,0.00,WUHU216HW,2013-03-06 04:52:00,
2013-03-05 20:57:00,51.5,41.3,29.77,North,0,0.0,0.0,68,0.00,,,0.00,WUHU216HW,2013-03-06 04:57:00,
2013-03-05 21:00:00,51.5,41.3,29.77,North,0,0.0,0.0,68,0.00,,,0.00,WUHU216HW,2013-03-06 05:00:00,
2013-03-05 21:05:00,51.5,41.3,29.77,North,0,0.0,0.0,68,0.00,,,0.00,WUHU216HW,2013-03-06 05:05:00,
2013-03-05 21:10:00,51.5,41.3,29.77,North,0,0.0,0.0,68,0.00,,,0.00,WUHU216HW,2013-03-06 05:10:00,
2013-03-05 21:15:00,51.5,41.3,29.76,North,0,0.0,0.0,68,0.00,,,0.00,WUHU216HW,2013-03-06 05:15:00,
2013-03-05 21:20:00,51.7,41.5,29.75,North,0,0.0,0.0,68,0.00,,,0.00,WUHU216HW,2013-03-06 05:20:00,
2013-03-05 21:26:00,51.7,41.5,29.75,North,0,0.0,0.0,68,0.00,,,0.00,WUHU216HW,2013-03-06 05:26:00,
2013-03-05 21:31:00,51.8,41.2,29.75,North,0,0.0,0.0,67,0.00,,,0.00,WUHU216HW,2013-03-06 05:31:00,
2013-03-05 21:36:00,52.2,40.3,29.76,North,0,0.0,0.0,64,0.00,,,0.00,WUHU216HW,2013-03-06 05:36:00,
2013-03-05 21:41:00,52.7,40.1,29.75,North,0,0.0,0.0,62,0.00,,,0.00,WUHU216HW,2013-03-06 05:41:00,
2013-03-05 21:46:00,52.9,41.4,29.76,North,0,0.0,0.0,65,0.00,,,0.00,WUHU216HW,2013-03-06 05:46:00,
2013-03-05 21:51:00,52.6,42.0,29.76,North,0,0.0,0.0,67,0.00,,,0.00,WUHU216HW,2013-03-06 05:51:00,
2013-03-05 21:56:00,52.2,42.4,29.76,North,0,0.0,0.0,69,0.01,,,0.01,WUHU216HW,2013-03-06 05:56:00,
2013-03-05 22:01:00,51.7,42.7,29.76,North,0,0.0,0.0,71,0.01,,,0.01,WUHU216HW,2013-03-06 06:01:00,
2013-03-05 22:06:00,51.3,42.7,29.76,North,0,0.0,0.0,72,0.02,,,0.02,WUHU216HW,2013-03-06 06:06:00,
2013-03-05 22:11:00,50.9,42.9,29.75,North,0,0.0,0.0,74,0.03,,,0.03,WUHU216HW,2013-03-06 06:11:00,
2013-03-05 22:16:00,50.8,43.1,29.75,North,0,0.0,0.0,75,0.04,,,0.04,WUHU216HW,2013-03-06 06:16:00,
2013-03-05 22:22:00,50.4,43.1,29.75,North,0,0.0,0.0,76,0.05,,,0.05,WUHU216HW,2013-03-06 06:22:00,
2013-03-05 22:27:00,50.2,42.9,29.75,North,0,0.0,0.0,76,0.05,,,0.05,WUHU216HW,2013-03-06 06:27:00,
2013-03-05 22:32:00,50.2,43.3,29.75,North,0,0.0,0.0,77,0.06,,,0.06,WUHU216HW,2013-03-06 06:32:00,
2013-03-05 22:37:00,50.0,43.1,29.75,North,0,0.0,0.0,77,0.07,,,0.07,WUHU216HW,2013-03-06 06:37:00,
2013-03-05 22:42:00,49.9,42.9,29.75,North,0,0.0,0.0,77,0.07,,,0.07,WUHU216HW,2013-03-06 06:42:00,
2013-03-05 22:47:00,49.9,43.2,29.75,North,0,0.0,0.0,78,0.07,,,0.07,WUHU216HW,2013-03-06 06:47:00,
2013-03-05 22:52:00,50.0,43.4,29.75,North,0,0.0,0.0,78,0.06,,,0.07,WUHU216HW,2013-03-06 06:52:00,
2013-03-05 22:57:00,50.0,43.4,29.74,North,0,0.0,0.0,78,0.06,,,0.07,WUHU216HW,2013-03-06 06:57:00,
2013-03-05 23:02:00,50.0,43.1,29.74,North,0,0.0,0.0,77,0.05,,,0.07,WUHU216HW,2013-03-06 07:02:00,
2013-03-05 23:07:00,50.0,43.1,29.75,North,0,0.0,0.0,77,0.04,,,0.07,WUHU216HW,2013-03-06 07:07:00,
2013-03-05 23:12:00,50.0,42.8,29.74,North,0,0.0,0.0,76,0.03,,,0.07,WUHU216HW,2013-03-06 07:12:00,
2013-03-05 23:17:00,50.0,42.8,29.73,North,0,0.0,0.0,76,0.02,,,0.07,WUHU216HW,2013-03-06 07:17:00,
2013-03-05 23:22:00,50.2,42.9,29.73,North,0,0.0,0.0,76,0.02,,,0.07,WUHU216HW,2013-03-06 07:22:00,
2013-03-05 23:27:00,50.2,42.9,29.73,North,0,0.0,0.0,76,0.02,,,0.07,WUHU216HW,2013-03-06 07:27:00,
2013-03-05 23:33:00,50.2,42.9,29.73,North,0,0.0,0.0,76,0.00,,,0.07,WUHU216HW,2013-03-06 07:33:00,
2013-03-05 23:38:00,50.4,43.1,29.73,North,0,0.0,0.0,76,0.00,,,0.07,WUHU216HW,2013-03-06 07:38:00,
2013-03-05 23:43:00,50.4,43.1,29.73,North,0,0.0,0.0,76,0.00,,,0.07,WUHU216HW,2013-03-06 07:43:00,
2013-03-05 23:48:00,50.4,42.8,29.72,North,0,0.0,0.0,75,0.00,,,0.07,WUHU216HW,2013-03-06 07:48:00,
2013-03-05 23:53:00,50.4,42.8,29.72,North,0,0.0,0.0,75,0.00,,,0.07,WUHU216HW,2013-03-06 07:53:00,
2013-03-05 23:58:00,50.4,42.8,29.72,North,0,0.0,0.0,75,0.00,,,0.07,WUHU216HW,2013-03-06 07:58:00,